Time;durP1;ratioP1;P1;durP2;ratioP2;P2;SDS_P1;SDS_P2;PMS_P1;PMS_P2;Temp;Humidity;BMP_temperature;BMP_pressure;BME280_temperature;BME280_humidity;BME280_pressure;Samples;Min_cycle;Max_cycle;Signal;HPM_P1;HPM_P2
2022/03/06 00:00:47;;;;;;;23.48;4.55;;;23.30;99.90;;;;;;6131657;23;20371;-76
2022/03/06 00:03:15;;;;;;;18.20;3.85;;;23.40;99.90;;;;;;6158246;23;20027;-76
2022/03/06 00:05:42;;;;;;;21.52;3.42;;;23.50;99.90;;;;;;6157626;23;20006;-77
2022/03/06 00:08:10;;;;;;;16.55;3.00;;;23.50;99.90;;;;;;6131491;23;20041;-75
2022/03/06 00:10:37;;;;;;;16.33;3.95;;;23.70;99.90;;;;;;6157284;23;20002;-76
2022/03/06 00:13:04;;;;;;;17.60;3.65;;;23.90;99.90;;;;;;6132174;23;20023;-75
2022/03/06 00:15:32;;;;;;;15.02;3.55;;;24.00;99.90;;;;;;6158139;23;20390;-76
2022/03/06 00:18:00;;;;;;;11.65;2.00;;;24.10;99.90;;;;;;6131608;23;20092;-75
2022/03/06 00:20:27;;;;;;;8.30;1.60;;;24.00;99.90;;;;;;6131654;23;20005;-76
2022/03/06 00:22:55;;;;;;;12.07;1.90;;;24.00;99.90;;;;;;6131038;23;20426;-75
2022/03/06 00:25:22;;;;;;;8.50;1.52;;;24.00;99.90;;;;;;6157761;23;20002;-76
2022/03/06 00:27:50;;;;;;;10.00;1.60;;;24.30;99.90;;;;;;6131410;23;20002;-75
2022/03/06 00:30:17;;;;;;;9.00;2.15;;;24.80;99.90;;;;;;6158547;23;20072;-76
2022/03/06 00:32:44;;;;;;;12.80;2.85;;;25.30;99.90;;;;;;6132090;23;20009;-75
2022/03/06 00:35:12;;;;;;;18.38;3.50;;;25.50;99.90;;;;;;6157774;23;20069;-72
2022/03/06 00:37:40;;;;;;;16.65;3.50;;;25.50;99.90;;;;;;6138737;23;20013;-74
2022/03/06 00:40:08;;;;;;;18.10;3.40;;;25.80;99.90;;;;;;6158111;23;20398;-78
2022/03/06 00:42:35;;;;;;;18.67;3.63;;;26.10;99.90;;;;;;6131741;23;20006;-74
2022/03/06 00:45:04;;;;;;;23.60;5.07;;;25.80;99.90;;;;;;6132000;23;20086;-75
2022/03/06 00:47:31;;;;;;;19.90;4.35;;;25.50;99.90;;;;;;6130847;23;20442;-74
2022/03/06 00:49:59;;;;;;;23.08;4.40;;;25.90;99.90;;;;;;6131657;23;20013;-74
2022/03/06 00:52:27;;;;;;;23.40;4.55;;;26.00;99.90;;;;;;6157913;23;20431;-75
2022/03/06 00:54:54;;;;;;;24.83;4.57;;;26.30;99.90;;;;;;6157272;23;20001;-75
2022/03/06 00:57:21;;;;;;;19.35;3.88;;;26.20;99.90;;;;;;6157692;23;20008;-75
2022/03/06 00:59:49;;;;;;;23.08;5.13;;;25.90;99.90;;;;;;6157710;23;20001;-74
2022/03/06 01:02:16;;;;;;;23.52;3.85;;;25.50;99.90;;;;;;6157523;23;20001;-74
2022/03/06 01:04:44;;;;;;;15.75;3.05;;;25.50;99.90;;;;;;6157463;23;20010;-75
2022/03/06 01:07:11;;;;;;;16.13;3.00;;;25.20;99.90;;;;;;6131223;23;20438;-74
2022/03/06 01:09:38;;;;;;;14.82;2.75;;;25.30;99.90;;;;;;6157284;23;20382;-74
2022/03/06 01:12:06;;;;;;;13.98;2.35;;;24.90;99.90;;;;;;6131057;23;20088;-74
2022/03/06 01:14:34;;;;;;;10.55;2.13;;;24.90;99.90;;;;;;6158110;23;19998;-74
2022/03/06 01:17:01;;;;;;;9.20;2.47;;;25.00;99.90;;;;;;6157076;23;20044;-74
2022/03/06 01:19:28;;;;;;;9.27;2.05;;;24.90;99.90;;;;;;6156923;23;20012;-74
2022/03/06 01:21:56;;;;;;;11.98;2.72;;;25.30;99.90;;;;;;6157063;23;20005;-75
2022/03/06 01:24:23;;;;;;;9.02;2.13;;;25.90;99.90;;;;;;6156821;23;20076;-75
2022/03/06 01:26:50;;;;;;;9.55;1.38;;;26.20;99.90;;;;;;6131524;23;20051;-75
2022/03/06 01:29:18;;;;;;;8.82;2.58;;;26.20;99.90;;;;;;6159356;23;20033;-75
2022/03/06 01:31:46;;;;;;;7.18;1.48;;;26.30;99.90;;;;;;6156865;23;20025;-76
2022/03/06 01:34:13;;;;;;;10.98;2.35;;;26.00;99.90;;;;;;6157573;23;20497;-75
2022/03/06 01:36:41;;;;;;;7.65;1.73;;;25.90;99.90;;;;;;6157159;23;19998;-76
2022/03/06 01:39:08;;;;;;;10.00;2.38;;;25.90;99.90;;;;;;6131756;23;20001;-76
2022/03/06 01:41:36;;;;;;;9.15;1.98;;;26.10;99.90;;;;;;6130720;23;20016;-76
2022/03/06 01:44:11;;;;;;;7.38;1.75;;;25.90;99.90;;;;;;6130810;23;20063;-75
2022/03/06 01:46:38;;;;;;;6.32;1.63;;;25.80;99.90;;;;;;6130922;23;20006;-74
2022/03/06 01:49:06;;;;;;;5.65;1.90;;;25.70;99.90;;;;;;6156940;23;20010;-76
2022/03/06 01:51:33;;;;;;;8.32;2.28;;;25.50;99.90;;;;;;6130563;23;20020;-75
2022/03/06 01:54:01;;;;;;;8.95;1.95;;;25.30;99.90;;;;;;6156561;23;20002;-75
2022/03/06 01:56:29;;;;;;;7.63;1.80;;;25.30;99.90;;;;;;6106344;23;20446;-76
2022/03/06 01:58:57;;;;;;;7.70;1.90;;;25.50;99.90;;;;;;6157265;23;20004;-75
2022/03/06 02:01:25;;;;;;;10.95;2.20;;;25.50;99.90;;;;;;6157093;23;20486;-75
2022/03/06 02:03:52;;;;;;;7.55;2.38;;;25.60;99.90;;;;;;6156208;23;20080;-76
2022/03/06 02:06:20;;;;;;;10.55;2.15;;;25.60;99.90;;;;;;6100829;23;20462;-76
2022/03/06 02:08:48;;;;;;;11.90;2.45;;;25.80;99.90;;;;;;6101329;23;20113;-76
2022/03/06 02:11:16;;;;;;;7.82;1.80;;;25.10;99.90;;;;;;6127518;23;20006;-75
2022/03/06 02:13:44;;;;;;;10.05;2.50;;;24.80;99.90;;;;;;6127673;23;20379;-76
2022/03/06 02:16:11;;;;;;;7.95;2.15;;;24.40;99.90;;;;;;6127299;23;20002;-76
2022/03/06 02:18:39;;;;;;;11.35;2.13;;;24.20;99.90;;;;;;6101203;23;20013;-75
2022/03/06 02:21:13;;;;;;;9.85;2.90;;;23.90;99.90;;;;;;6127030;23;20507;-75
2022/03/06 02:23:41;;;;;;;8.25;1.95;;;23.70;99.90;;;;;;6101171;23;20010;-75
2022/03/06 02:26:09;;;;;;;8.98;2.17;;;23.40;99.90;;;;;;6101310;23;20006;-77
2022/03/06 02:28:37;;;;;;;10.32;2.05;;;23.20;99.90;;;;;;6101715;23;20056;-76
2022/03/06 02:31:04;;;;;;;8.07;2.10;;;23.20;99.90;;;;;;6127437;23;20009;-76
2022/03/06 02:33:32;;;;;;;10.73;2.10;;;23.40;99.90;;;;;;6127029;23;20022;-76
2022/03/06 02:35:59;;;;;;;7.38;2.50;;;23.50;99.90;;;;;;6101916;23;20010;-76
2022/03/06 02:38:27;;;;;;;7.88;2.00;;;23.70;99.90;;;;;;6129135;23;19998;-77
2022/03/06 02:40:55;;;;;;;8.10;2.00;;;23.90;99.90;;;;;;6129335;23;20029;-75
2022/03/06 02:43:22;;;;;;;8.65;2.35;;;24.00;99.90;;;;;;6103703;23;20002;-79
2022/03/06 02:45:50;;;;;;;10.18;2.40;;;24.20;99.90;;;;;;6130057;23;20005;-78
2022/03/06 02:48:19;;;;;;;6.45;1.90;;;24.10;99.90;;;;;;6130181;23;20371;-85
2022/03/06 02:50:46;;;;;;;6.20;2.13;;;23.90;99.90;;;;;;6129491;23;19998;-81
2022/03/06 02:53:13;;;;;;;11.70;3.53;;;24.00;99.90;;;;;;6130425;23;20005;-82
2022/03/06 02:55:42;;;;;;;10.88;2.58;;;23.90;99.90;;;;;;6130861;23;20002;-82
2022/03/06 02:58:10;;;;;;;10.45;2.20;;;23.80;99.90;;;;;;6105491;23;20010;-80
2022/03/06 03:00:38;;;;;;;11.00;2.40;;;23.60;99.90;;;;;;6105454;23;20080;-82
2022/03/06 03:03:05;;;;;;;11.52;2.28;;;23.40;99.90;;;;;;6130812;23;20057;-81
2022/03/06 03:05:32;;;;;;;9.20;2.15;;;23.30;99.90;;;;;;6150981;23;20024;-83
2022/03/06 03:08:00;;;;;;;10.05;2.10;;;23.10;99.90;;;;;;6160422;23;20005;-79
2022/03/06 03:10:28;;;;;;;7.60;1.95;;;22.80;99.90;;;;;;6160214;23;20037;-80
2022/03/06 03:12:56;;;;;;;11.82;2.90;;;22.70;99.90;;;;;;6159838;23;20080;-81
2022/03/06 03:15:24;;;;;;;9.20;2.10;;;22.70;99.90;;;;;;6133470;23;20005;-78
2022/03/06 03:17:51;;;;;;;11.57;2.08;;;22.90;99.90;;;;;;6134018;23;19986;-80
2022/03/06 03:20:19;;;;;;;8.75;2.30;;;23.10;99.90;;;;;;6134361;23;20491;-79
2022/03/06 03:22:47;;;;;;;10.88;2.63;;;23.20;99.90;;;;;;6160191;23;20002;-81
2022/03/06 03:25:14;;;;;;;7.82;1.55;;;23.50;99.90;;;;;;6134125;23;20435;-81
2022/03/06 03:27:41;;;;;;;11.00;2.00;;;23.70;99.90;;;;;;6134347;23;20002;-81
2022/03/06 03:30:10;;;;;;;8.25;1.90;;;23.80;99.90;;;;;;6160259;23;20076;-82
2022/03/06 03:32:39;;;;;;;6.55;1.50;;;23.90;99.90;;;;;;6159785;23;20427;-81
2022/03/06 03:35:07;;;;;;;6.15;1.38;;;24.20;99.90;;;;;;6158719;23;20021;-80
2022/03/06 03:37:35;;;;;;;5.20;1.80;;;23.90;99.90;;;;;;6134249;23;20002;-81
2022/03/06 03:40:03;;;;;;;6.63;1.88;;;24.10;99.90;;;;;;6134585;23;20084;-80
2022/03/06 03:42:32;;;;;;;6.90;1.60;;;24.50;99.90;;;;;;6159855;23;20005;-79
2022/03/06 03:44:59;;;;;;;7.38;1.58;;;24.90;99.90;;;;;;6158971;23;20419;-80
2022/03/06 03:47:27;;;;;;;6.63;1.80;;;25.00;99.90;;;;;;6132860;23;20363;-81
2022/03/06 03:49:54;;;;;;;9.77;1.95;;;24.80;99.90;;;;;;6132667;23;20009;-79
2022/03/06 03:52:21;;;;;;;8.10;1.80;;;24.80;99.90;;;;;;6159153;23;19989;-79
2022/03/06 03:54:49;;;;;;;7.57;1.67;;;24.50;99.90;;;;;;6132812;23;20092;-79
2022/03/06 03:57:16;;;;;;;5.82;1.55;;;24.30;99.90;;;;;;6133167;23;20026;-79
2022/03/06 03:59:44;;;;;;;8.68;2.13;;;23.90;99.90;;;;;;6159051;23;20053;-80
2022/03/06 04:02:11;;;;;;;10.63;2.53;;;23.60;99.90;;;;;;6157893;23;20005;-77
2022/03/06 04:04:39;;;;;;;7.50;2.00;;;23.50;99.90;;;;;;6157759;23;20098;-81
2022/03/06 04:07:06;;;;;;;11.45;3.08;;;23.30;99.90;;;;;;6131611;23;20423;-77
2022/03/06 04:09:34;;;;;;;8.80;2.55;;;23.10;99.90;;;;;;6157586;23;20339;-78
2022/03/06 04:12:01;;;;;;;9.25;2.25;;;23.00;99.90;;;;;;6157221;23;20013;-79
2022/03/06 04:14:28;;;;;;;12.48;2.17;;;22.70;99.90;;;;;;6131887;23;20005;-80
2022/03/06 04:16:56;;;;;;;10.07;1.95;;;22.50;99.90;;;;;;6158035;23;20001;-80
2022/03/06 04:19:23;;;;;;;6.47;1.60;;;22.30;99.90;;;;;;6158356;23;19998;-80
2022/03/06 04:21:50;;;;;;;7.32;2.30;;;22.10;99.90;;;;;;6157922;23;20028;-78
2022/03/06 04:24:18;;;;;;;5.85;1.67;;;22.00;99.90;;;;;;6131700;23;20009;-79
2022/03/06 04:26:45;;;;;;;5.35;1.35;;;21.90;99.90;;;;;;6157575;23;20367;-78
2022/03/06 04:29:12;;;;;;;5.60;1.42;;;21.80;99.90;;;;;;6131091;23;20501;-78
2022/03/06 04:31:40;;;;;;;5.07;1.60;;;21.80;99.90;;;;;;6157040;23;20001;-78
2022/03/06 04:34:08;;;;;;;7.68;2.10;;;21.70;99.90;;;;;;6131297;23;20005;-79
2022/03/06 04:36:35;;;;;;;8.77;1.98;;;21.80;99.90;;;;;;6131451;23;20012;-81
2022/03/06 04:39:03;;;;;;;10.43;2.28;;;21.80;99.90;;;;;;6157901;23;20002;-80
2022/03/06 04:41:31;;;;;;;10.00;2.53;;;21.80;99.90;;;;;;6158068;23;20009;-79
2022/03/06 04:43:59;;;;;;;10.88;2.60;;;21.80;99.90;;;;;;6132198;23;20006;-79
2022/03/06 04:46:27;;;;;;;12.00;3.17;;;21.80;99.90;;;;;;6162498;23;20012;-81
2022/03/06 04:48:54;;;;;;;13.63;3.25;;;21.90;99.90;;;;;;6133014;23;20012;-81
2022/03/06 04:51:22;;;;;;;9.57;2.75;;;21.90;99.90;;;;;;6132648;23;20009;-80
2022/03/06 04:53:49;;;;;;;12.77;2.33;;;21.90;99.90;;;;;;6132593;23;20435;-80
2022/03/06 04:56:16;;;;;;;9.95;2.58;;;21.90;99.90;;;;;;6132282;23;20005;-82
2022/03/06 04:58:44;;;;;;;12.82;2.67;;;22.00;99.90;;;;;;6131734;23;20426;-78
2022/03/06 05:01:11;;;;;;;11.90;3.00;;;22.00;99.90;;;;;;6131748;23;20005;-78
2022/03/06 05:03:38;;;;;;;11.73;3.15;;;21.90;99.90;;;;;;6157943;23;20002;-78
2022/03/06 05:06:06;;;;;;;9.20;2.65;;;21.90;99.90;;;;;;6157243;23;20509;-79
2022/03/06 05:08:33;;;;;;;7.90;1.95;;;22.00;99.90;;;;;;6131762;23;20376;-77
2022/03/06 05:11:04;;;;;;;10.85;2.30;;;22.00;99.90;;;;;;6157766;23;20061;-79
2022/03/06 05:13:31;;;;;;;10.30;2.20;;;22.00;99.90;;;;;;6131733;23;20088;-79
2022/03/06 05:15:58;;;;;;;11.48;2.08;;;21.90;99.90;;;;;;6131560;23;20005;-79
2022/03/06 05:18:26;;;;;;;7.78;1.85;;;21.90;99.90;;;;;;6159404;23;20140;-80
2022/03/06 05:20:53;;;;;;;11.30;2.83;;;22.00;99.90;;;;;;6157996;23;20004;-81
2022/03/06 05:23:20;;;;;;;11.23;2.40;;;22.00;99.90;;;;;;6131490;23;20497;-81
2022/03/06 05:25:48;;;;;;;8.43;2.35;;;22.20;99.90;;;;;;6158109;23;20013;-82
2022/03/06 05:28:16;;;;;;;11.27;2.08;;;22.20;99.90;;;;;;6159338;23;20407;-81
2022/03/06 05:30:45;;;;;;;9.85;3.15;;;22.20;99.90;;;;;;6158248;23;20384;-81
2022/03/06 05:33:12;;;;;;;7.60;2.03;;;22.40;99.90;;;;;;6132463;23;20006;-81
2022/03/06 05:35:40;;;;;;;8.13;2.05;;;22.40;99.90;;;;;;6131705;23;20378;-79
2022/03/06 05:38:07;;;;;;;9.48;1.92;;;22.40;99.90;;;;;;6132109;23;20449;-81
2022/03/06 05:40:35;;;;;;;9.43;2.13;;;22.50;99.90;;;;;;6131748;23;20012;-82
2022/03/06 05:43:03;;;;;;;8.02;1.95;;;22.40;99.90;;;;;;6132831;23;20009;-81
2022/03/06 05:45:30;;;;;;;11.50;2.88;;;22.50;99.90;;;;;;6131790;23;20414;-80
2022/03/06 05:47:58;;;;;;;9.82;2.20;;;22.60;99.90;;;;;;6159775;23;20076;-80
2022/03/06 05:50:25;;;;;;;10.82;2.17;;;22.70;99.90;;;;;;6157493;23;20029;-80
2022/03/06 05:52:52;;;;;;;8.25;2.30;;;22.70;99.90;;;;;;6130803;23;20041;-80
2022/03/06 05:55:20;;;;;;;8.07;2.05;;;22.90;99.90;;;;;;6131098;23;20137;-80
2022/03/06 05:57:47;;;;;;;6.43;1.75;;;23.00;99.90;;;;;;6157746;23;20327;-80
2022/03/06 06:00:17;;;;;;;7.90;1.90;;;23.00;99.90;;;;;;6130827;23;20036;-79
2022/03/06 06:02:45;;;;;;;7.55;2.05;;;23.10;99.90;;;;;;6130832;23;20068;-80
2022/03/06 06:05:13;;;;;;;7.05;2.22;;;23.10;99.90;;;;;;6156626;23;20013;-80
2022/03/06 06:07:40;;;;;;;8.05;2.03;;;23.30;99.90;;;;;;6131143;23;20006;-81
2022/03/06 06:10:08;;;;;;;10.02;2.30;;;23.30;99.90;;;;;;6131963;23;20005;-81
2022/03/06 06:12:35;;;;;;;12.05;2.88;;;23.50;99.90;;;;;;6160152;23;20009;-81
2022/03/06 06:15:03;;;;;;;7.03;2.13;;;23.90;99.90;;;;;;6159926;23;19997;-82
2022/03/06 06:17:30;;;;;;;9.23;2.58;;;23.80;99.90;;;;;;6109843;23;20013;-81
2022/03/06 06:20:00;;;;;;;12.82;2.75;;;24.00;99.90;;;;;;6159699;23;20036;-82
2022/03/06 06:22:31;;;;;;;14.07;3.22;;;23.90;99.90;;;;;;6159791;23;20334;-82
2022/03/06 06:24:59;;;;;;;10.25;2.40;;;24.00;99.90;;;;;;6133094;23;20006;-81
2022/03/06 06:27:27;;;;;;;10.35;2.53;;;24.00;99.90;;;;;;6159152;23;20133;-82
2022/03/06 06:29:55;;;;;;;13.98;3.35;;;24.00;99.90;;;;;;6133015;23;20009;-82
2022/03/06 06:32:22;;;;;;;11.77;2.83;;;24.00;99.90;;;;;;6131189;23;20044;-82
2022/03/06 06:34:50;;;;;;;10.63;2.40;;;24.10;99.90;;;;;;6131353;23;20029;-82
2022/03/06 06:37:17;;;;;;;12.80;2.78;;;24.40;99.90;;;;;;6157394;23;20008;-83
2022/03/06 06:39:45;;;;;;;11.32;2.92;;;24.40;99.90;;;;;;6157667;23;20020;-83
2022/03/06 06:42:12;;;;;;;7.63;2.25;;;24.60;99.90;;;;;;6131145;23;20021;-82
2022/03/06 06:44:39;;;;;;;10.82;2.63;;;24.60;99.90;;;;;;6157461;23;20009;-83
2022/03/06 06:47:07;;;;;;;9.85;3.20;;;24.70;99.90;;;;;;6131389;23;20032;-82
2022/03/06 06:49:35;;;;;;;13.32;3.22;;;24.80;99.90;;;;;;6131181;23;20407;-82
2022/03/06 06:52:02;;;;;;;11.75;3.20;;;24.70;99.90;;;;;;6157242;23;20372;-81
2022/03/06 06:54:30;;;;;;;12.55;3.45;;;24.50;99.90;;;;;;6130997;23;20338;-81
2022/03/06 06:56:57;;;;;;;12.13;3.25;;;24.30;99.90;;;;;;6130912;23;20076;-81
2022/03/06 06:59:24;;;;;;;10.23;2.90;;;24.10;99.90;;;;;;6131167;23;20028;-81
2022/03/06 07:01:52;;;;;;;13.43;2.67;;;24.00;99.90;;;;;;6131247;23;20013;-81
2022/03/06 07:04:19;;;;;;;12.80;3.15;;;23.80;99.90;;;;;;6130849;23;20025;-80
2022/03/06 07:06:46;;;;;;;13.73;3.17;;;23.80;99.90;;;;;;6131074;23;20435;-80
2022/03/06 07:09:13;;;;;;;13.68;2.83;;;23.70;99.90;;;;;;6131084;23;20033;-81
2022/03/06 07:11:42;;;;;;;14.68;2.92;;;23.50;99.90;;;;;;6157134;23;20431;-82
2022/03/06 07:14:14;;;;;;;11.40;3.20;;;23.40;99.90;;;;;;6156922;23;20057;-80
2022/03/06 07:16:45;;;;;;;11.98;2.33;;;23.30;99.90;;;;;;6157133;23;20048;-80
2022/03/06 07:19:12;;;;;;;12.27;2.17;;;23.30;99.90;;;;;;6157108;23;20002;-80
2022/03/06 07:21:40;;;;;;;12.82;2.90;;;23.20;99.90;;;;;;6156411;23;20031;-80
2022/03/06 07:24:08;;;;;;;17.38;2.70;;;23.20;99.90;;;;;;6130691;23;20092;-80
2022/03/06 07:26:35;;;;;;;7.00;1.80;;;23.20;99.90;;;;;;6130723;23;20013;-83
2022/03/06 07:29:04;;;;;;;14.38;2.90;;;23.20;99.90;;;;;;6157139;23;20033;-79
2022/03/06 07:31:31;;;;;;;13.90;2.70;;;23.10;99.90;;;;;;6130921;23;20006;-79
2022/03/06 07:33:58;;;;;;;10.68;2.72;;;23.10;99.90;;;;;;6130897;23;20019;-81
2022/03/06 07:36:26;;;;;;;9.60;2.30;;;23.10;99.90;;;;;;6156921;23;20326;-80
2022/03/06 07:38:54;;;;;;;11.48;2.55;;;23.10;99.90;;;;;;6156711;23;20112;-80
2022/03/06 07:41:21;;;;;;;13.05;3.00;;;23.10;99.90;;;;;;6156841;23;20009;-80
2022/03/06 07:43:49;;;;;;;13.13;3.03;;;23.10;99.90;;;;;;6130626;23;20012;-80
2022/03/06 07:46:16;;;;;;;10.70;2.50;;;23.00;99.90;;;;;;6130559;23;20017;-80
2022/03/06 07:48:44;;;;;;;14.75;3.00;;;23.10;99.90;;;;;;6156626;23;20044;-80
2022/03/06 07:51:11;;;;;;;12.18;3.20;;;23.00;99.90;;;;;;6130567;23;20061;-80
2022/03/06 07:53:38;;;;;;;14.20;3.35;;;23.10;99.90;;;;;;6156351;23;20007;-79
2022/03/06 07:56:06;;;;;;;13.70;3.50;;;23.10;99.90;;;;;;6156150;23;20426;-79
2022/03/06 07:58:33;;;;;;;14.52;2.90;;;23.10;99.90;;;;;;6129691;23;20084;-78
2022/03/06 08:01:00;;;;;;;13.82;3.17;;;23.00;99.90;;;;;;6156016;23;20076;-78
2022/03/06 08:03:28;;;;;;;14.65;3.95;;;23.00;99.90;;;;;;6129565;23;20088;-79
2022/03/06 08:05:55;;;;;;;16.38;4.43;;;22.90;99.90;;;;;;6155777;23;20009;-79
2022/03/06 08:08:22;;;;;;;14.95;4.35;;;22.90;99.90;;;;;;6129318;23;20001;-78
2022/03/06 08:10:50;;;;;;;21.90;5.30;;;22.80;99.90;;;;;;6155988;23;20024;-77
2022/03/06 08:13:17;;;;;;;14.48;4.03;;;22.70;99.90;;;;;;6156051;23;20494;-78
2022/03/06 08:15:44;;;;;;;12.68;4.30;;;22.70;99.90;;;;;;6130204;23;20339;-79
2022/03/06 08:18:12;;;;;;;16.30;4.53;;;22.70;99.90;;;;;;6156380;23;19998;-78
2022/03/06 08:20:39;;;;;;;13.02;4.13;;;22.70;99.90;;;;;;6156174;23;20009;-79
2022/03/06 08:23:07;;;;;;;13.63;3.53;;;22.60;99.90;;;;;;6156221;23;20073;-79
2022/03/06 08:25:34;;;;;;;15.98;4.30;;;22.60;99.90;;;;;;6156185;23;20006;-79
2022/03/06 08:28:01;;;;;;;14.15;3.83;;;22.70;99.90;;;;;;6156599;23;20442;-80
2022/03/06 08:30:29;;;;;;;16.35;4.43;;;22.70;99.90;;;;;;6130128;23;20350;-81
2022/03/06 08:32:56;;;;;;;15.98;4.63;;;22.60;99.90;;;;;;6129886;23;20005;-80
2022/03/06 08:35:23;;;;;;;14.65;4.10;;;22.60;99.90;;;;;;6129918;23;20335;-79
2022/03/06 08:37:51;;;;;;;13.15;4.47;;;22.60;99.90;;;;;;6131103;23;20001;-82
2022/03/06 08:40:18;;;;;;;13.90;3.70;;;22.60;99.90;;;;;;6128192;23;20379;-78
2022/03/06 08:42:46;;;;;;;15.18;3.83;;;22.70;99.90;;;;;;6156075;23;20001;-78
2022/03/06 08:45:15;;;;;;;15.55;4.22;;;22.70;99.90;;;;;;6156026;23;20012;-78
2022/03/06 08:47:43;;;;;;;11.63;3.30;;;22.70;99.90;;;;;;6129897;23;20005;-78
2022/03/06 08:50:10;;;;;;;12.07;3.78;;;22.70;99.90;;;;;;6129740;23;20005;-80
2022/03/06 08:52:38;;;;;;;13.25;3.25;;;22.70;99.90;;;;;;6129801;23;20505;-80
2022/03/06 08:55:06;;;;;;;12.70;4.20;;;22.70;99.90;;;;;;6156266;23;20056;-80
2022/03/06 08:57:33;;;;;;;16.33;4.60;;;22.80;99.90;;;;;;6129799;23;20002;-78
2022/03/06 09:00:00;;;;;;;13.60;4.60;;;22.80;99.90;;;;;;6129803;23;20009;-78
2022/03/06 09:02:28;;;;;;;16.33;4.15;;;22.90;99.90;;;;;;6129783;23;20475;-79
2022/03/06 09:04:55;;;;;;;14.48;5.38;;;22.90;99.90;;;;;;6129637;23;20387;-79
2022/03/06 09:07:23;;;;;;;16.23;4.22;;;22.90;99.90;;;;;;6129609;23;20005;-78
2022/03/06 09:09:51;;;;;;;21.00;5.18;;;22.90;99.90;;;;;;6129864;23;20041;-79
2022/03/06 09:12:19;;;;;;;12.60;3.58;;;23.00;99.90;;;;;;6155785;23;20435;-79
2022/03/06 09:14:47;;;;;;;17.33;3.83;;;22.90;99.90;;;;;;6129559;23;20028;-79
2022/03/06 09:17:14;;;;;;;12.80;3.33;;;23.00;99.90;;;;;;6155886;23;20431;-79
2022/03/06 09:19:43;;;;;;;11.15;2.00;;;22.90;99.90;;;;;;6156144;23;20025;-80
2022/03/06 09:22:10;;;;;;;9.32;2.08;;;22.90;99.90;;;;;;6129611;23;20092;-80
2022/03/06 09:24:38;;;;;;;8.38;1.90;;;22.90;99.90;;;;;;6129735;23;20493;-82
2022/03/06 09:27:06;;;;;;;8.23;2.60;;;22.80;99.90;;;;;;6129487;23;20083;-80
2022/03/06 09:29:33;;;;;;;9.90;2.50;;;22.80;99.90;;;;;;6155909;23;20001;-80
2022/03/06 09:32:00;;;;;;;13.65;2.75;;;22.70;99.90;;;;;;6155721;23;20009;-80
2022/03/06 09:34:27;;;;;;;13.02;2.38;;;22.80;99.90;;;;;;6155836;23;20005;-80
2022/03/06 09:36:55;;;;;;;12.23;2.53;;;22.70;99.90;;;;;;6156360;23;19997;-83
2022/03/06 09:39:22;;;;;;;13.35;3.03;;;22.70;99.90;;;;;;6155780;23;20359;-79
2022/03/06 09:41:51;;;;;;;12.23;2.67;;;22.70;99.90;;;;;;6129531;23;20085;-79
2022/03/06 09:44:19;;;;;;;15.43;2.47;;;22.70;99.90;;;;;;6155666;23;20009;-78
2022/03/06 09:46:48;;;;;;;11.00;3.00;;;22.70;99.90;;;;;;6129118;23;20347;-79
2022/03/06 09:49:16;;;;;;;15.63;2.83;;;22.70;99.90;;;;;;6155584;23;20033;-79
2022/03/06 09:51:43;;;;;;;10.55;2.45;;;22.60;99.90;;;;;;6155442;23;20304;-81
2022/03/06 09:54:12;;;;;;;12.60;2.38;;;22.60;99.90;;;;;;6129741;23;20029;-83
2022/03/06 09:56:40;;;;;;;15.40;3.38;;;22.60;99.90;;;;;;6129617;23;20060;-83
2022/03/06 09:59:08;;;;;;;12.13;2.75;;;22.70;99.90;;;;;;6156239;23;20001;-80
2022/03/06 10:01:36;;;;;;;12.40;2.97;;;22.70;99.90;;;;;;6129492;23;20005;-80
2022/03/06 10:04:24;;;;;;;16.05;2.85;;;22.70;99.90;;;;;;6155285;23;20008;-80
2022/03/06 10:07:03;;;;;;;12.23;3.17;;;22.80;99.90;;;;;;6129372;23;20093;-80
2022/03/06 10:09:33;;;;;;;14.02;2.50;;;22.80;99.90;;;;;;6155784;23;20006;-80
2022/03/06 10:12:01;;;;;;;13.60;2.60;;;22.80;99.90;;;;;;6129237;23;20009;-80
2022/03/06 10:14:36;;;;;;;11.40;2.53;;;22.90;99.90;;;;;;6129215;23;20008;-79
2022/03/06 10:17:20;;;;;;;11.52;2.50;;;22.90;99.90;;;;;;6129354;23;20012;-80
2022/03/06 10:19:48;;;;;;;14.30;2.88;;;22.90;99.90;;;;;;6155607;23;20435;-80
2022/03/06 10:22:16;;;;;;;20.35;3.13;;;23.00;99.90;;;;;;6155663;23;20501;-81
2022/03/06 10:24:51;;;;;;;17.30;3.20;;;23.00;99.90;;;;;;6129407;23;20048;-81
2022/03/06 10:28:10;;;;;;;15.20;3.58;;;23.00;99.90;;;;;;6130552;23;20002;-80
2022/03/06 10:30:39;;;;;;;12.60;3.05;;;23.00;99.90;;;;;;6090966;23;20499;-79
2022/03/06 10:33:10;;;;;;;16.08;3.80;;;23.00;99.90;;;;;;6155340;23;20447;-79
2022/03/06 10:35:40;;;;;;;15.85;3.15;;;23.00;99.90;;;;;;6129801;23;20052;-79
2022/03/06 10:38:27;;;;;;;15.07;2.78;;;23.00;99.90;;;;;;6129382;23;20081;-79
2022/03/06 10:40:57;;;;;;;13.95;2.83;;;23.00;99.90;;;;;;6155294;23;20008;-79
2022/03/06 10:43:34;;;;;;;14.68;2.80;;;23.00;99.90;;;;;;6155336;23;20004;-78
2022/03/06 10:46:18;;;;;;;15.18;3.15;;;23.00;99.90;;;;;;6129229;23;20331;-79
2022/03/06 10:49:01;;;;;;;13.43;2.00;;;23.00;99.90;;;;;;6129160;23;20002;-79
2022/03/06 10:51:29;;;;;;;9.77;2.00;;;23.00;99.90;;;;;;6129231;23;20020;-79
2022/03/06 10:53:58;;;;;;;10.48;1.80;;;23.00;99.90;;;;;;6155280;23;19998;-79
2022/03/06 10:56:26;;;;;;;13.27;2.20;;;22.90;99.90;;;;;;6155275;23;20002;-78
2022/03/06 10:58:55;;;;;;;13.10;2.15;;;22.90;99.90;;;;;;6157067;23;19998;-79
2022/03/06 11:01:23;;;;;;;11.25;2.00;;;22.90;99.90;;;;;;6130987;23;20037;-78
2022/03/06 11:03:54;;;;;;;10.98;2.28;;;22.90;99.90;;;;;;6157004;23;20001;-79
2022/03/06 11:06:22;;;;;;;9.27;1.90;;;22.90;99.90;;;;;;6157135;23;20013;-79
2022/03/06 11:08:50;;;;;;;13.15;2.70;;;22.90;99.90;;;;;;6157120;23;20009;-79
2022/03/06 11:11:19;;;;;;;10.10;1.80;;;22.90;99.90;;;;;;6130812;23;20033;-80
2022/03/06 11:13:47;;;;;;;8.73;1.67;;;22.90;99.90;;;;;;6158109;23;20031;-80
2022/03/06 11:16:16;;;;;;;11.07;2.17;;;22.90;99.90;;;;;;6130670;23;20012;-79
2022/03/06 11:18:44;;;;;;;14.68;2.75;;;23.00;99.90;;;;;;6130739;23;20081;-80
2022/03/06 11:21:13;;;;;;;6.93;1.52;;;22.90;99.90;;;;;;6130645;23;20012;-80
2022/03/06 11:23:46;;;;;;;8.30;1.88;;;22.90;99.90;;;;;;6130837;23;20383;-80
2022/03/06 11:26:14;;;;;;;14.30;3.15;;;23.00;99.90;;;;;;6130886;23;20001;-81
2022/03/06 11:28:44;;;;;;;12.32;2.83;;;23.00;99.90;;;;;;6130807;23;20080;-78
2022/03/06 11:31:12;;;;;;;9.63;2.10;;;23.00;99.90;;;;;;6130347;23;20324;-77
2022/03/06 11:34:03;;;;;;;14.18;2.53;;;23.00;99.90;;;;;;6130561;23;20009;-78
2022/03/06 11:36:32;;;;;;;7.20;2.42;;;23.00;99.90;;;;;;6156609;23;20433;-81
2022/03/06 11:38:59;;;;;;;9.43;2.22;;;22.90;99.90;;;;;;6156813;23;20012;-80
2022/03/06 11:41:27;;;;;;;8.10;1.98;;;22.90;99.90;;;;;;6130620;23;20012;-78
2022/03/06 11:43:54;;;;;;;13.73;3.15;;;22.90;99.90;;;;;;6157129;23;19998;-78
2022/03/06 11:46:23;;;;;;;7.15;2.00;;;22.90;99.90;;;;;;6130852;23;20044;-79
2022/03/06 11:48:50;;;;;;;12.38;2.80;;;22.90;99.90;;;;;;6157096;23;20001;-81
2022/03/06 11:51:18;;;;;;;11.77;2.60;;;22.90;99.90;;;;;;6156821;23;20443;-80
2022/03/06 11:53:54;;;;;;;15.52;2.75;;;22.90;99.90;;;;;;6130687;23;20427;-79
2022/03/06 11:56:33;;;;;;;12.38;3.25;;;22.90;99.90;;;;;;6157055;23;20445;-80
2022/03/06 11:59:09;;;;;;;14.43;2.47;;;22.80;99.90;;;;;;6130525;23;20001;-79
2022/03/06 12:01:39;;;;;;;17.40;3.30;;;22.90;99.90;;;;;;6130357;23;20032;-79
2022/03/06 12:04:09;;;;;;;14.55;3.10;;;22.90;99.90;;;;;;6156593;23;20009;-79
2022/03/06 12:06:46;;;;;;;15.93;3.15;;;22.90;99.90;;;;;;6157646;23;20005;-79
2022/03/06 12:09:23;;;;;;;17.05;3.10;;;22.90;99.90;;;;;;6130898;23;20343;-80
2022/03/06 12:11:53;;;;;;;11.70;2.60;;;22.90;99.90;;;;;;6157080;23;20014;-79
2022/03/06 12:14:24;;;;;;;16.63;3.38;;;22.90;99.90;;;;;;6130582;23;20025;-79
2022/03/06 12:17:07;;;;;;;22.95;3.97;;;22.90;99.90;;;;;;6130673;23;20037;-80
2022/03/06 12:19:54;;;;;;;17.65;3.25;;;22.90;99.90;;;;;;6130542;23;20009;-79
2022/03/06 12:22:43;;;;;;;24.63;5.25;;;23.00;99.90;;;;;;6156902;23;20335;-79
2022/03/06 12:25:15;;;;;;;20.55;4.45;;;23.00;99.90;;;;;;6129174;23;20342;-79
2022/03/06 12:28:03;;;;;;;25.23;5.07;;;23.00;99.90;;;;;;6156530;23;20009;-80
2022/03/06 12:30:34;;;;;;;20.25;4.70;;;23.00;99.90;;;;;;6156053;23;20006;-79
2022/03/06 12:33:26;;;;;;;26.13;4.57;;;23.10;99.90;;;;;;6156146;23;20009;-79
2022/03/06 12:36:16;;;;;;;15.05;3.78;;;23.10;99.90;;;;;;6113804;23;20096;-78
2022/03/06 12:38:44;;;;;;;23.67;3.80;;;23.10;99.90;;;;;;6156185;23;20004;-78
2022/03/06 12:41:13;;;;;;;19.90;4.22;;;23.10;99.90;;;;;;6129877;23;20002;-78
2022/03/06 12:43:47;;;;;;;16.75;3.35;;;23.20;99.90;;;;;;6156083;23;20024;-79
2022/03/06 12:46:16;;;;;;;21.40;3.55;;;23.10;99.90;;;;;;6129929;23;20006;-79
2022/03/06 12:48:47;;;;;;;17.30;3.27;;;23.10;99.90;;;;;;6156028;23;20029;-79